Impacts METAR Board INFO
IDs:

KLAS - Las Vegas/McCarran I, NV, US

Updated at: 1735 UTC 18 Jan 2018
Potential Impact None Slight Moderate High
Time18/05Z 18/06Z 18/07Z 18/08Z 18/09Z 18/10Z 18/11Z 18/12Z 18/13Z 18/14Z 18/15Z 18/16Z 18/17Z
VIS10 10 10 10 10 10 10 10 10 10 10 10 10
CIG220 220 250 250 250 250 250 250 250 250 250 -- 250
CoverBKNBKNOVCOVCOVCOVCOVCOVCOVCOVCBKNSCTBKN
FltCatVFRVFRVFRVFRVFRVFRVFRVFRVFRVFRVFRVFRVFR
WX--------------------------
WDir2302402002200200000001900
WSpd4 3 3 3 0 4 0 0 0 0 0 3 0
WGst-- -- -- -- -- -- -- -- -- -- -- -- --
Raw hourly METARs
KLAS 180456Z 23004KT 10SM FEW180 BKN220 13/04 A3023 RMK AO2 SLP233 T01280039
KLAS 180556Z 24003KT 10SM FEW180 BKN220 13/04 A3024 RMK AO2 SLP232 T01330039 10189 20128 55001
KLAS 180656Z 20003KT 10SM SCT220 OVC250 12/04 A3023 RMK AO2 SLP229 T01170039
KLAS 180756Z 22003KT 10SM SCT220 OVC250 11/04 A3022 RMK AO2 SLP224 T01110039 401890078
KLAS 180856Z 00000KT 10SM FEW220 OVC250 11/04 A3020 RMK AO2 SLP220 T01060044 58010
KLAS 180956Z 20004KT 10SM OVC250 11/04 A3019 RMK AO2 SLP216 T01060039
KLAS 181056Z 00000KT 10SM OVC250 11/04 A3018 RMK AO2 SLP210 T01060039
KLAS 181156Z 00000KT 10SM OVC250 10/04 A3017 RMK AO2 SLP209 T01000039 10133 20100 56010
KLAS 181256Z 00000KT 10SM OVC250 10/04 A3017 RMK AO2 SLP210 T01000039
KLAS 181356Z 00000KT 10SM OVC250 10/04 A3019 RMK AO2 SLP215 T01000039
KLAS 181456Z 00000KT 10SM BKN250 09/04 A3020 RMK AO2 SLP222 T00940039 53009
KLAS 181556Z 19003KT 10SM SCT250 11/04 A3022 RMK AO2 SLP230 T01110039
KLAS 181656Z 00000KT 10SM BKN250 13/04 A3024 RMK AO2 SLP234 T01330039